Terminal Aerodrome Forecast
Issued by NWS

Home | Current Version | Previous Version | Text Only | Print | Product List | Glossary On
Versions: 1 2 3 4 5 6 7 8 9 10 11 12 13 14 15 16 17 18 19 20 21 22 23 24 25 26 27 28 29 30
000
FTUS43 KGRB 201509 AAA
TAFATW
TAF AMD
KATW 201509Z 2015/2112 09005KT 1 1/2SM BR OVC004
      TEMPO 2015/2018 4SM -DZ BR OVC006
     FM201800 27012G20KT P6SM OVC014
     FM210000 31014G22KT P6SM SCT020 BKN035=

USA.gov is the U.S. government's official web portal to all federal, state and local government web resources and services.